E80

Alexander Municipal Airport

Belen, New Mexico, USA
METAR KE80 210935Z AUTO 36003KT 10SM CLR 19/00 A3010 RMK AO2 T01851002
Observed Flight Rules
Jun-21 @ 09:35 UTC (32 minutes ago) Visual Flight Rules
Wind Visibility Clouds
360° at 3 knots 10 miles
  • Clear skies
Temperatures Readings
Current 19°C / 66°F
Dewpoint -0°C / 32°F
Humidity 28%
Altimeter 30.1" Hg
Pressure 1019 hPa
Elevation 1582
METAR KE80 210935Z AUTO 36003KT 10SM CLR 19/00 A3010 RMK AO2 T01851002
Observed Flight Rules
Jun-21 @ 09:35 UTC
(32 minutes ago)
VFR
Wind Visibility
360° at 3 knots 10 miles
Clouds
  • Clear skies
Temperature Dewpoint
19°C / 66°F -0°C / 32°F
Humidity Altimeter Pressure
28% 30.1" Hg 1019 hPa